createdAt,value
2022-08-05T00:00:15.986Z,996.59
2022-08-05T00:01:20.707Z,996.63
2022-08-05T00:02:15.773Z,996.65
2022-08-05T00:03:15.675Z,996.64
2022-08-05T00:04:14.686Z,996.66
2022-08-05T00:06:03.301Z,996.65
2022-08-05T00:06:27.876Z,996.65
2022-08-05T00:07:58.710Z,996.72
2022-08-05T00:08:32.561Z,996.72
2022-08-05T00:09:16.038Z,996.66
2022-08-05T00:10:14.608Z,996.67
2022-08-05T00:11:23.879Z,996.62
2022-08-05T00:12:15.599Z,996.61
2022-08-05T00:13:18.681Z,996.58
2022-08-05T00:14:17.092Z,996.57
2022-08-05T00:15:55.374Z,996.61
2022-08-05T00:16:15.558Z,996.57
2022-08-05T00:17:18.715Z,996.58
2022-08-05T00:18:21.555Z,996.54
2022-08-05T00:19:15.519Z,996.55
2022-08-05T00:20:14.468Z,996.51
2022-08-05T00:21:15.457Z,996.51
2022-08-05T00:22:14.448Z,996.48
2022-08-05T00:23:14.462Z,996.53
2022-08-05T00:24:16.061Z,996.49
2022-08-05T00:25:14.409Z,996.50
2022-08-05T00:26:14.420Z,996.52
2022-08-05T00:27:16.894Z,996.50
2022-08-05T00:28:14.379Z,996.54
2022-08-05T00:29:14.380Z,996.55
2022-08-05T00:30:14.347Z,996.58
2022-08-05T00:31:14.360Z,996.57
2022-08-05T00:32:15.712Z,996.57
2022-08-05T00:33:15.678Z,996.58
2022-08-05T00:34:56.987Z,996.58
2022-08-05T00:35:15.279Z,996.62
2022-08-05T00:37:11.754Z,996.61
2022-08-05T00:37:15.273Z,996.66
2022-08-05T00:38:14.266Z,996.64
2022-08-05T00:39:14.456Z,996.65
2022-08-05T00:40:14.210Z,996.64
2022-08-05T00:41:14.202Z,996.63
2022-08-05T00:42:31.787Z,996.67
2022-08-05T00:43:15.344Z,996.66
2022-08-05T00:44:14.205Z,996.65
2022-08-05T00:45:14.200Z,996.64
2022-08-05T00:46:14.150Z,996.63
2022-08-05T00:47:14.110Z,996.60
2022-08-05T00:48:14.119Z,996.65
2022-08-05T00:49:14.129Z,996.64
2022-08-05T00:50:14.096Z,996.65
2022-08-05T00:51:50.443Z,996.64
2022-08-05T00:52:15.061Z,996.66
2022-08-05T00:54:00.765Z,996.66
2022-08-05T00:54:15.021Z,996.64
2022-08-05T00:55:14.019Z,996.57
2022-08-05T00:56:14.021Z,996.54
2022-08-05T00:57:14.001Z,996.63
2022-08-05T00:58:13.994Z,996.57
2022-08-05T00:59:13.961Z,996.61
2022-08-05T01:00:13.940Z,996.57
2022-08-05T01:01:13.994Z,996.57
2022-08-05T01:02:13.921Z,996.55
2022-08-05T01:03:22.930Z,996.58
2022-08-05T01:04:15.792Z,996.61
2022-08-05T01:05:13.894Z,996.60
2022-08-05T01:06:15.236Z,996.59
2022-08-05T01:07:13.970Z,996.63
2022-08-05T01:08:40.996Z,996.59
2022-08-05T01:09:14.821Z,996.65
2022-08-05T01:10:13.831Z,996.68
2022-08-05T01:11:13.878Z,996.67
2022-08-05T01:12:18.819Z,996.70
2022-08-05T01:13:22.439Z,996.69
2022-08-05T01:14:15.422Z,996.69
2022-08-05T01:15:36.034Z,996.71
2022-08-05T01:16:14.732Z,996.67
2022-08-05T01:17:14.773Z,996.65
2022-08-05T01:18:13.741Z,996.65
2022-08-05T01:19:14.377Z,996.61
2022-08-05T01:20:13.683Z,996.61
2022-08-05T01:21:13.661Z,996.61
2022-08-05T01:22:18.872Z,996.63
2022-08-05T01:23:15.530Z,996.60
2022-08-05T01:24:14.633Z,996.63
2022-08-05T01:25:13.755Z,996.61
2022-08-05T01:26:13.602Z,996.63
2022-08-05T01:27:19.505Z,996.63
2022-08-05T01:28:14.583Z,996.64
2022-08-05T01:29:13.554Z,996.64
2022-08-05T01:30:18.670Z,996.64
2022-08-05T01:31:14.524Z,996.63
2022-08-05T01:32:18.378Z,996.67
2022-08-05T01:33:14.515Z,996.65
2022-08-05T01:34:14.497Z,996.66
2022-08-05T01:35:13.486Z,996.64
2022-08-05T01:36:16.219Z,996.64
2022-08-05T01:37:24.741Z,996.69
2022-08-05T01:38:14.562Z,996.67
2022-08-05T01:39:14.470Z,996.67
2022-08-05T01:40:14.423Z,996.65
2022-08-05T01:41:13.394Z,996.67
2022-08-05T01:42:13.738Z,996.66
2022-08-05T01:43:22.068Z,996.65
2022-08-05T01:44:15.331Z,996.69
2022-08-05T01:45:13.353Z,996.66
2022-08-05T01:46:16.255Z,996.63
2022-08-05T01:47:14.327Z,996.63
2022-08-05T01:48:13.332Z,996.62
2022-08-05T01:49:23.840Z,996.58
2022-08-05T01:50:15.696Z,996.56
2022-08-05T01:51:13.283Z,996.54
2022-08-05T01:52:17.922Z,996.57
2022-08-05T01:53:14.244Z,996.54
2022-08-05T01:54:14.233Z,996.62
2022-08-05T01:55:13.222Z,996.49
2022-08-05T01:56:13.221Z,996.53
2022-08-05T01:58:11.871Z,996.52
2022-08-05T01:58:15.641Z,996.55
2022-08-05T01:59:13.153Z,996.58
2022-08-05T02:00:13.188Z,996.58
2022-08-05T02:01:13.141Z,996.55
2022-08-05T02:02:13.183Z,996.59
2022-08-05T02:03:16.343Z,996.54
2022-08-05T02:04:14.098Z,996.49
2022-08-05T02:05:13.083Z,996.47
2022-08-05T02:06:37.191Z,996.48
2022-08-05T02:07:22.030Z,996.49
2022-08-05T02:08:14.046Z,996.47
2022-08-05T02:09:16.323Z,996.53
2022-08-05T02:10:17.488Z,996.51
2022-08-05T02:11:12.994Z,996.48
2022-08-05T02:12:12.985Z,996.52
2022-08-05T02:13:16.324Z,996.47
2022-08-05T02:14:13.110Z,996.49
2022-08-05T02:15:12.967Z,996.49
2022-08-05T02:16:16.298Z,996.54
2022-08-05T02:17:29.948Z,996.62
2022-08-05T02:18:33.084Z,996.65
2022-08-05T02:19:13.916Z,996.59
2022-08-05T02:20:12.883Z,996.59
2022-08-05T02:21:14.717Z,996.60
2022-08-05T02:22:25.422Z,996.58
2022-08-05T02:23:13.847Z,996.62
2022-08-05T02:24:12.835Z,996.61
2022-08-05T02:25:13.805Z,996.61
2022-08-05T02:26:12.795Z,996.63
2022-08-05T02:27:12.787Z,996.65
2022-08-05T02:28:12.804Z,996.66
2022-08-05T02:29:21.622Z,996.61
2022-08-05T02:30:13.745Z,996.56
2022-08-05T02:31:13.851Z,996.55
2022-08-05T02:32:12.725Z,996.50
2022-08-05T02:33:13.726Z,996.49
2022-08-05T02:34:13.706Z,996.49
2022-08-05T02:35:14.279Z,996.48
2022-08-05T02:36:13.270Z,996.50
2022-08-05T02:37:12.666Z,996.48
2022-08-05T02:38:13.321Z,996.51
2022-08-05T02:39:13.836Z,996.51
2022-08-05T02:40:12.616Z,996.51
2022-08-05T02:41:17.255Z,996.55
2022-08-05T02:42:25.950Z,996.48
2022-08-05T02:43:13.585Z,996.50
2022-08-05T02:44:13.478Z,996.52
2022-08-05T02:45:12.545Z,996.55
2022-08-05T02:46:12.546Z,996.52
2022-08-05T02:47:12.516Z,996.50
2022-08-05T02:48:13.030Z,996.49
2022-08-05T02:49:12.506Z,996.46
2022-08-05T02:50:12.476Z,996.47
2022-08-05T02:51:12.459Z,996.44
2022-08-05T02:52:25.897Z,996.41
2022-08-05T02:53:16.131Z,996.48
2022-08-05T02:54:36.170Z,996.46
2022-08-05T02:55:13.457Z,996.44
2022-08-05T02:56:16.102Z,996.47
2022-08-05T02:58:13.424Z,996.53
2022-08-05T02:58:20.177Z,996.52
2022-08-05T02:59:12.357Z,996.55
2022-08-05T03:00:12.378Z,996.59
2022-08-05T03:01:12.357Z,996.63
2022-08-05T03:02:12.346Z,996.62
2022-08-05T03:03:12.316Z,996.62
2022-08-05T03:04:12.943Z,996.59
2022-08-05T03:05:12.275Z,996.55
2022-08-05T03:06:55.568Z,996.62
2022-08-05T03:07:24.687Z,996.55
2022-08-05T03:08:13.513Z,996.53
2022-08-05T03:09:12.229Z,996.54
2022-08-05T03:10:13.395Z,996.55
2022-08-05T03:11:56.655Z,996.52
2022-08-05T03:12:13.197Z,996.51
2022-08-05T03:13:16.545Z,996.48
2022-08-05T03:14:13.299Z,996.52
2022-08-05T03:15:12.357Z,996.51
2022-08-05T03:16:12.135Z,996.48
2022-08-05T03:17:12.116Z,996.45
2022-08-05T03:18:12.114Z,996.46
2022-08-05T03:19:33.046Z,996.45
2022-08-05T03:20:13.593Z,996.43
2022-08-05T03:21:12.097Z,996.44
2022-08-05T03:22:16.686Z,996.47
2022-08-05T03:23:13.028Z,996.49
2022-08-05T03:24:12.016Z,996.52
2022-08-05T03:25:33.974Z,996.54
2022-08-05T03:26:31.716Z,996.55
2022-08-05T03:27:13.019Z,996.58
2022-08-05T03:28:11.999Z,996.63
2022-08-05T03:29:12.419Z,996.65
2022-08-05T03:30:12.938Z,996.65
2022-08-05T03:31:41.479Z,996.64
2022-08-05T03:32:14.456Z,996.58
2022-08-05T03:33:11.927Z,996.60
2022-08-05T03:34:11.887Z,996.62
2022-08-05T03:35:11.877Z,996.64
2022-08-05T03:36:11.874Z,996.67
2022-08-05T03:37:11.868Z,996.66
2022-08-05T03:38:11.871Z,996.68
2022-08-05T03:39:12.991Z,996.75
2022-08-05T03:40:12.861Z,996.76
2022-08-05T03:41:11.812Z,996.73
2022-08-05T03:42:11.827Z,996.71
2022-08-05T03:43:59.219Z,996.72
2022-08-05T03:44:12.762Z,996.67
2022-08-05T03:45:22.124Z,996.70
2022-08-05T03:46:12.726Z,996.65
2022-08-05T03:47:13.641Z,996.69
2022-08-05T03:48:11.717Z,996.69
2022-08-05T03:49:11.688Z,996.76
2022-08-05T03:50:11.701Z,996.74
2022-08-05T03:52:35.276Z,996.74
2022-08-05T03:52:48.404Z,996.77
2022-08-05T03:55:06.917Z,996.80
2022-08-05T03:56:00.722Z,996.74
2022-08-05T03:56:05.325Z,996.79
2022-08-05T03:56:26.948Z,996.86
2022-08-05T03:57:16.541Z,996.83
2022-08-05T03:58:12.569Z,996.89
2022-08-05T03:59:11.580Z,996.89
2022-08-05T04:00:11.539Z,996.87
2022-08-05T04:01:12.864Z,996.83
2022-08-05T04:02:17.281Z,996.85
2022-08-05T04:03:26.653Z,996.81
2022-08-05T04:04:12.486Z,996.74
2022-08-05T04:05:11.477Z,996.74
2022-08-05T04:06:11.470Z,996.75
2022-08-05T04:07:11.469Z,996.74
2022-08-05T04:08:22.471Z,996.75
2022-08-05T04:09:12.421Z,996.73
2022-08-05T04:10:11.427Z,996.76
2022-08-05T04:11:12.413Z,996.77
2022-08-05T04:12:23.430Z,996.75
2022-08-05T04:13:12.371Z,996.78
2022-08-05T04:14:11.354Z,996.77
2022-08-05T04:15:15.463Z,996.79
2022-08-05T04:16:11.400Z,996.82
2022-08-05T04:17:11.410Z,996.81
2022-08-05T04:18:20.225Z,996.87
2022-08-05T04:19:12.308Z,996.86
2022-08-05T04:20:11.292Z,996.92
2022-08-05T04:21:11.298Z,996.93
2022-08-05T04:22:12.313Z,996.98
2022-08-05T04:23:12.594Z,997.07
2022-08-05T04:24:19.733Z,997.05
2022-08-05T04:25:12.220Z,997.04
2022-08-05T04:26:11.228Z,997.00
2022-08-05T04:27:11.189Z,996.99
2022-08-05T04:28:12.813Z,996.92
2022-08-05T04:29:11.192Z,996.97
2022-08-05T04:30:11.154Z,996.94
2022-08-05T04:31:11.130Z,996.97
2022-08-05T04:32:11.120Z,996.98
2022-08-05T04:33:11.129Z,996.96
2022-08-05T04:34:31.710Z,997.00
2022-08-05T04:35:19.623Z,996.97
2022-08-05T04:36:45.753Z,996.96
2022-08-05T04:37:20.030Z,996.97
2022-08-05T04:38:12.040Z,996.98
2022-08-05T04:39:11.045Z,997.00
2022-08-05T04:40:11.018Z,997.01
2022-08-05T04:41:11.019Z,997.02
2022-08-05T04:42:10.973Z,997.06
2022-08-05T04:43:16.653Z,997.15
2022-08-05T04:44:11.988Z,997.24
2022-08-05T04:45:10.951Z,997.37
2022-08-05T04:46:11.949Z,997.60
2022-08-05T04:47:12.071Z,997.77
2022-08-05T04:48:18.398Z,998.00
2022-08-05T04:49:14.517Z,998.09
2022-08-05T04:50:11.667Z,998.08
2022-08-05T04:51:11.529Z,998.01
2022-08-05T04:52:10.849Z,997.90
2022-08-05T04:53:10.832Z,997.83
2022-08-05T04:54:10.861Z,997.80
2022-08-05T04:55:14.581Z,997.84
2022-08-05T04:56:32.832Z,997.91
2022-08-05T04:57:11.783Z,997.96
2022-08-05T04:58:12.421Z,997.93
2022-08-05T04:59:22.288Z,997.93
2022-08-05T05:00:11.737Z,997.95
2022-08-05T05:01:10.801Z,997.97
2022-08-05T05:02:41.360Z,997.96
2022-08-05T05:03:11.762Z,998.01
2022-08-05T05:04:11.690Z,998.09
2022-08-05T05:05:17.030Z,998.13
2022-08-05T05:06:40.197Z,998.06
2022-08-05T05:07:11.650Z,998.05
2022-08-05T05:08:14.100Z,997.92
2022-08-05T05:09:14.366Z,997.92
2022-08-05T05:10:11.610Z,997.96
2022-08-05T05:11:10.621Z,998.04
2022-08-05T05:12:10.587Z,998.05
2022-08-05T05:13:10.572Z,998.00
2022-08-05T05:14:10.570Z,998.02
2022-08-05T05:15:17.333Z,998.15
2022-08-05T05:16:11.540Z,998.19
2022-08-05T05:17:10.522Z,998.27
2022-08-05T05:18:10.530Z,998.25
2022-08-05T05:19:19.515Z,998.27
2022-08-05T05:20:11.540Z,998.32
2022-08-05T05:21:10.484Z,998.24
2022-08-05T05:22:24.049Z,998.17
2022-08-05T05:23:19.910Z,998.26
2022-08-05T05:24:11.431Z,998.27
2022-08-05T05:25:16.086Z,998.32
2022-08-05T05:26:11.421Z,998.28
2022-08-05T05:27:10.391Z,998.25
2022-08-05T05:28:10.383Z,998.22
2022-08-05T05:29:14.691Z,998.25
2022-08-05T05:30:15.315Z,998.24
2022-08-05T05:31:11.352Z,998.27
2022-08-05T05:32:12.579Z,998.29
2022-08-05T05:33:16.868Z,998.25
2022-08-05T05:34:11.319Z,998.21
2022-08-05T05:35:10.272Z,998.12
2022-08-05T05:36:11.263Z,998.19
2022-08-05T05:37:10.241Z,998.22
2022-08-05T05:38:12.720Z,998.23
2022-08-05T05:39:11.050Z,998.25
2022-08-05T05:40:10.232Z,998.21
2022-08-05T05:41:10.212Z,998.21
2022-08-05T05:42:10.183Z,998.19
2022-08-05T05:43:10.195Z,998.20
2022-08-05T05:44:15.756Z,998.17
2022-08-05T05:45:11.155Z,998.17
2022-08-05T05:46:15.824Z,998.13
2022-08-05T05:47:23.555Z,998.13
2022-08-05T05:48:11.171Z,998.15
2022-08-05T05:49:22.456Z,998.11
2022-08-05T05:50:11.145Z,998.10
2022-08-05T05:51:15.273Z,998.17
2022-08-05T05:52:13.311Z,998.15
2022-08-05T05:53:21.409Z,998.06
2022-08-05T05:54:11.524Z,998.02
2022-08-05T05:55:13.570Z,997.99
2022-08-05T05:56:10.036Z,998.07
2022-08-05T05:57:13.542Z,998.11
2022-08-05T05:58:09.993Z,998.07
2022-08-05T05:59:10.015Z,998.11
2022-08-05T06:00:10.229Z,998.05
2022-08-05T06:01:13.382Z,998.09
2022-08-05T06:02:10.933Z,998.05
2022-08-05T06:03:40.624Z,998.08
2022-08-05T06:04:12.012Z,998.11
2022-08-05T06:05:10.432Z,998.12
2022-08-05T06:06:10.897Z,998.14
2022-08-05T06:07:10.646Z,998.08
2022-08-05T06:08:09.878Z,998.12
2022-08-05T06:09:17.710Z,998.12
2022-08-05T06:10:10.846Z,998.11
2022-08-05T06:11:09.856Z,998.14
2022-08-05T06:12:09.875Z,998.18
2022-08-05T06:13:09.809Z,998.18
2022-08-05T06:14:09.799Z,998.18
2022-08-05T06:15:12.403Z,998.23
2022-08-05T06:16:29.707Z,998.21
2022-08-05T06:17:22.253Z,998.22
2022-08-05T06:18:10.721Z,998.16
2022-08-05T06:19:09.761Z,998.20
2022-08-05T06:20:09.768Z,998.15
2022-08-05T06:21:16.572Z,998.14
2022-08-05T06:22:10.669Z,998.18
2022-08-05T06:23:09.652Z,998.22
2022-08-05T06:24:11.800Z,998.24
2022-08-05T06:25:25.269Z,998.23
2022-08-05T06:26:13.857Z,998.16
2022-08-05T06:27:17.085Z,998.11
2022-08-05T06:28:21.427Z,998.10
2022-08-05T06:29:23.565Z,998.10
2022-08-05T06:30:17.664Z,998.05
2022-08-05T06:31:11.275Z,998.05
2022-08-05T06:32:21.468Z,998.03
2022-08-05T06:33:10.676Z,997.98
2022-08-05T06:34:09.537Z,997.98
2022-08-05T06:35:21.776Z,997.96
2022-08-05T06:36:10.524Z,998.00
2022-08-05T06:37:09.483Z,998.05
2022-08-05T06:38:11.666Z,998.09
2022-08-05T06:39:09.510Z,998.12
2022-08-05T06:40:09.466Z,998.14
2022-08-05T06:41:09.434Z,998.23
2022-08-05T06:42:09.424Z,998.16
2022-08-05T06:43:57.867Z,998.26
2022-08-05T06:44:10.386Z,998.21
2022-08-05T06:45:09.629Z,998.23
2022-08-05T06:46:10.376Z,998.26
2022-08-05T06:47:10.330Z,998.36
2022-08-05T06:48:44.335Z,998.38
2022-08-05T06:49:10.342Z,998.43
2022-08-05T06:50:09.305Z,998.49
2022-08-05T06:51:12.044Z,998.53
2022-08-05T06:52:37.391Z,998.52
2022-08-05T06:53:11.713Z,998.45
2022-08-05T06:54:19.041Z,998.31
2022-08-05T06:55:10.257Z,998.13
2022-08-05T06:56:26.112Z,998.10
2022-08-05T06:57:56.636Z,998.24
2022-08-05T06:58:20.594Z,998.37
2022-08-05T06:59:11.983Z,998.40
2022-08-05T07:00:09.853Z,998.35
2022-08-05T07:01:09.239Z,998.18
2022-08-05T07:02:09.172Z,998.16
2022-08-05T07:03:09.775Z,998.22
2022-08-05T07:04:09.141Z,998.31
2022-08-05T07:05:18.499Z,998.42
2022-08-05T07:06:14.389Z,998.50
2022-08-05T07:07:10.232Z,998.51
2022-08-05T07:08:10.986Z,998.51
2022-08-05T07:09:09.079Z,998.58
2022-08-05T07:10:09.081Z,998.72
2022-08-05T07:11:15.550Z,998.77
2022-08-05T07:12:10.050Z,998.81
2022-08-05T07:13:09.020Z,998.80
2022-08-05T07:14:20.553Z,998.79
2022-08-05T07:15:10.020Z,998.75
2022-08-05T07:16:09.010Z,998.69
2022-08-05T07:18:01.317Z,998.70
2022-08-05T07:18:12.586Z,998.73
2022-08-05T07:19:09.967Z,998.67
2022-08-05T07:20:32.421Z,998.62
2022-08-05T07:21:09.922Z,998.60
2022-08-05T07:22:08.921Z,998.60
2022-08-05T07:23:08.882Z,998.59
2022-08-05T07:24:11.335Z,998.64
2022-08-05T07:25:22.834Z,998.72
2022-08-05T07:26:09.873Z,998.75
2022-08-05T07:27:09.040Z,998.85
2022-08-05T07:28:11.606Z,998.93
2022-08-05T07:29:08.845Z,998.95
2022-08-05T07:30:27.677Z,999.02
2022-08-05T07:31:09.822Z,999.00
2022-08-05T07:32:08.795Z,998.95
2022-08-05T07:33:09.382Z,998.92
2022-08-05T07:34:08.790Z,998.90
2022-08-05T07:36:02.995Z,998.88
2022-08-05T07:36:20.335Z,998.85
2022-08-05T07:37:11.742Z,998.82
2022-08-05T07:38:12.425Z,998.83
2022-08-05T07:39:24.629Z,998.80
2022-08-05T07:40:32.048Z,998.88
2022-08-05T07:42:07.407Z,998.91
2022-08-05T07:42:15.106Z,998.92
2022-08-05T07:43:20.510Z,998.97
2022-08-05T07:44:14.523Z,998.94
2022-08-05T07:45:09.620Z,998.94
2022-08-05T07:46:24.215Z,998.93
2022-08-05T07:47:10.177Z,998.90
2022-08-05T07:48:09.566Z,998.93
2022-08-05T07:49:08.550Z,998.96
2022-08-05T07:50:08.554Z,998.97
2022-08-05T07:51:23.765Z,998.98
2022-08-05T07:52:09.627Z,999.04
2022-08-05T07:53:08.525Z,999.06
2022-08-05T07:54:10.018Z,999.02
2022-08-05T07:55:15.861Z,999.06
2022-08-05T07:57:00.202Z,999.12
2022-08-05T07:57:41.529Z,999.12
2022-08-05T07:58:09.749Z,999.13
2022-08-05T07:59:09.430Z,999.11
2022-08-05T08:00:11.352Z,999.04
2022-08-05T08:01:12.332Z,999.09
2022-08-05T08:02:15.575Z,999.09
2022-08-05T08:03:15.150Z,999.08
2022-08-05T08:04:09.401Z,999.08
2022-08-05T08:05:08.399Z,999.10
2022-08-05T08:06:08.407Z,999.12
2022-08-05T08:07:08.327Z,999.20
2022-08-05T08:08:12.450Z,999.15
2022-08-05T08:09:08.318Z,999.15
2022-08-05T08:10:08.322Z,999.22
2022-08-05T08:11:08.783Z,999.23
2022-08-05T08:12:19.040Z,999.21
2022-08-05T08:13:09.269Z,999.27
2022-08-05T08:14:08.251Z,999.28
2022-08-05T08:15:13.981Z,999.26
2022-08-05T08:16:35.841Z,999.31
2022-08-05T08:17:09.193Z,999.32
2022-08-05T08:18:13.864Z,999.31
2022-08-05T08:19:09.219Z,999.34
2022-08-05T08:20:22.605Z,999.35
2022-08-05T08:21:09.696Z,999.41
2022-08-05T08:22:09.207Z,999.38
2022-08-05T08:23:59.863Z,999.35
2022-08-05T08:24:13.560Z,999.34
2022-08-05T08:25:16.137Z,999.33
2022-08-05T08:26:09.103Z,999.31
2022-08-05T08:27:08.094Z,999.30
2022-08-05T08:28:18.213Z,999.29
2022-08-05T08:30:03.779Z,999.30
2022-08-05T08:30:29.810Z,999.38
2022-08-05T08:31:09.028Z,999.38
2022-08-05T08:32:10.824Z,999.41
2022-08-05T08:33:08.204Z,999.42
2022-08-05T08:34:07.994Z,999.40
2022-08-05T08:35:13.452Z,999.40
2022-08-05T08:37:08.950Z,999.40
2022-08-05T08:38:07.964Z,999.38
2022-08-05T08:39:15.123Z,999.41
2022-08-05T08:40:08.928Z,999.38
2022-08-05T08:41:07.911Z,999.33
2022-08-05T08:42:11.055Z,999.32
2022-08-05T08:45:16.088Z,999.31
2022-08-05T08:45:22.763Z,999.26
2022-08-05T08:45:23.662Z,999.27
2022-08-05T08:46:09.862Z,999.26
2022-08-05T08:47:47.487Z,999.28
2022-08-05T08:48:22.580Z,999.24
2022-08-05T08:50:06.048Z,999.24
2022-08-05T08:50:29.821Z,999.22
2022-08-05T08:51:30.655Z,999.21
2022-08-05T08:52:13.502Z,999.15
2022-08-05T08:53:11.971Z,999.13
2022-08-05T08:54:07.760Z,999.05
2022-08-05T08:55:13.219Z,999.05
2022-08-05T08:56:08.719Z,999.01
2022-08-05T08:57:11.435Z,998.97
2022-08-05T08:58:08.682Z,998.98
2022-08-05T08:59:14.744Z,998.96
2022-08-05T09:00:08.673Z,998.90
2022-08-05T09:01:07.726Z,998.92
2022-08-05T09:02:08.668Z,998.87
2022-08-05T09:03:07.629Z,998.80
2022-08-05T09:04:07.709Z,998.77
2022-08-05T09:05:17.883Z,998.71
2022-08-05T09:06:11.575Z,998.71
2022-08-05T09:07:10.668Z,998.71
2022-08-05T09:08:09.739Z,998.75
2022-08-05T09:09:07.576Z,998.70
2022-08-05T09:10:07.561Z,998.73
2022-08-05T09:11:07.541Z,998.72
2022-08-05T09:12:19.982Z,998.73
2022-08-05T09:13:08.499Z,998.74
2022-08-05T09:14:54.095Z,998.76
2022-08-05T09:15:08.486Z,998.83
2022-08-05T09:16:07.453Z,998.78
2022-08-05T09:17:09.443Z,998.78
2022-08-05T09:18:08.783Z,998.81
2022-08-05T09:19:07.505Z,998.80
2022-08-05T09:20:07.568Z,998.77
2022-08-05T09:21:11.615Z,998.75
2022-08-05T09:22:21.799Z,998.70
2022-08-05T09:23:09.518Z,998.65
2022-08-05T09:24:07.397Z,998.62
2022-08-05T09:25:13.510Z,998.59
2022-08-05T09:26:09.212Z,998.58
2022-08-05T09:27:07.355Z,998.55
2022-08-05T09:28:07.364Z,998.49
2022-08-05T09:29:07.317Z,998.45
2022-08-05T09:30:07.285Z,998.48
2022-08-05T09:31:43.339Z,998.42
2022-08-05T09:32:41.513Z,998.40
2022-08-05T09:33:08.259Z,998.42
2022-08-05T09:34:09.824Z,998.47
2022-08-05T09:35:07.226Z,998.47
2022-08-05T09:36:11.771Z,998.39
2022-08-05T09:37:14.968Z,998.42
2022-08-05T09:38:16.535Z,998.42
2022-08-05T09:39:17.959Z,998.44
2022-08-05T09:40:08.227Z,998.39
2022-08-05T09:41:07.161Z,998.39
2022-08-05T09:42:08.439Z,998.40
2022-08-05T09:43:08.370Z,998.39
2022-08-05T09:44:07.118Z,998.48
2022-08-05T09:46:05.015Z,998.48
2022-08-05T09:46:08.864Z,998.49
2022-08-05T09:47:10.393Z,998.58
2022-08-05T09:48:08.070Z,998.50
2022-08-05T09:49:19.493Z,998.49
2022-08-05T09:50:08.332Z,998.49
2022-08-05T09:51:14.976Z,998.53
2022-08-05T09:52:08.080Z,998.52
2022-08-05T09:53:06.991Z,998.61
2022-08-05T09:54:06.992Z,998.61
2022-08-05T09:55:55.636Z,998.68
2022-08-05T09:56:13.270Z,998.65
2022-08-05T09:57:23.198Z,998.64
2022-08-05T09:58:07.935Z,998.62
2022-08-05T09:59:06.941Z,998.60
2022-08-05T10:00:07.878Z,998.61
2022-08-05T10:01:14.821Z,998.60
2022-08-05T10:02:07.888Z,998.64
2022-08-05T10:03:06.932Z,998.62
2022-08-05T10:04:10.413Z,998.66
2022-08-05T10:05:07.984Z,998.63
2022-08-05T10:06:15.532Z,998.60
2022-08-05T10:07:20.741Z,998.59
2022-08-05T10:08:36.917Z,998.57
2022-08-05T10:09:07.852Z,998.60
2022-08-05T10:10:15.555Z,998.59
2022-08-05T10:11:07.789Z,998.60
2022-08-05T10:12:18.774Z,998.58
2022-08-05T10:13:09.905Z,998.56
2022-08-05T10:14:06.742Z,998.54
2022-08-05T10:15:06.753Z,998.54
2022-08-05T10:16:06.713Z,998.52
2022-08-05T10:17:06.694Z,998.51
2022-08-05T10:18:07.711Z,998.50
2022-08-05T10:19:09.167Z,998.51
2022-08-05T10:20:10.070Z,998.53
2022-08-05T10:21:11.756Z,998.54
2022-08-05T10:22:07.694Z,998.54
2022-08-05T10:23:08.962Z,998.55
2022-08-05T10:24:10.669Z,998.52
2022-08-05T10:25:06.649Z,998.53
2022-08-05T10:26:07.121Z,998.58
2022-08-05T10:27:07.560Z,998.55
2022-08-05T10:28:13.510Z,998.58
2022-08-05T10:29:07.575Z,998.56
2022-08-05T10:31:21.048Z,998.58
2022-08-05T10:32:54.652Z,998.56
2022-08-05T10:32:54.654Z,998.58
2022-08-05T10:33:09.260Z,998.59
2022-08-05T10:34:08.146Z,998.53
2022-08-05T10:35:06.472Z,998.55
2022-08-05T10:36:06.459Z,998.53
2022-08-05T10:37:06.447Z,998.60
2022-08-05T10:38:06.437Z,998.53
2022-08-05T10:39:10.279Z,998.54
2022-08-05T10:40:19.465Z,998.55
2022-08-05T10:41:07.486Z,998.49
2022-08-05T10:42:06.385Z,998.53
2022-08-05T10:43:06.368Z,998.55
2022-08-05T10:44:06.372Z,998.48
2022-08-05T10:45:09.607Z,998.43
2022-08-05T10:46:07.333Z,998.43
2022-08-05T10:47:06.319Z,998.38
2022-08-05T10:48:31.421Z,998.30
2022-08-05T10:49:10.135Z,998.35
2022-08-05T10:50:20.877Z,998.40
2022-08-05T10:51:21.777Z,998.34
2022-08-05T10:52:10.532Z,998.36
2022-08-05T10:53:06.269Z,998.31
2022-08-05T10:54:28.227Z,998.35
2022-08-05T10:55:07.220Z,998.38
2022-08-05T10:56:14.906Z,998.39
2022-08-05T10:57:07.192Z,998.38
2022-08-05T10:58:06.180Z,998.50
2022-08-05T10:59:12.465Z,998.49
2022-08-05T11:00:11.033Z,998.49
2022-08-05T11:01:07.153Z,998.46
2022-08-05T11:02:06.153Z,998.45
2022-08-05T11:03:23.424Z,998.45
2022-08-05T11:04:07.143Z,998.43
2022-08-05T11:05:06.114Z,998.47
2022-08-05T11:06:06.082Z,998.45
2022-08-05T11:07:06.072Z,998.43
2022-08-05T11:08:27.659Z,998.46
2022-08-05T11:09:07.053Z,998.46
2022-08-05T11:10:09.962Z,998.44
2022-08-05T11:11:14.577Z,998.38
2022-08-05T11:12:07.003Z,998.39
2022-08-05T11:13:06.024Z,998.33
2022-08-05T11:14:06.066Z,998.35
2022-08-05T11:15:19.427Z,998.28
2022-08-05T11:16:06.953Z,998.26
2022-08-05T11:18:00.087Z,998.26
2022-08-05T11:18:06.936Z,998.27
2022-08-05T11:20:11.337Z,998.28
2022-08-05T11:20:11.399Z,998.22
2022-08-05T11:21:11.597Z,998.17
2022-08-05T11:22:06.885Z,998.19
2022-08-05T11:23:08.933Z,998.18
2022-08-05T11:24:29.757Z,998.17
2022-08-05T11:26:03.409Z,998.17
2022-08-05T11:26:08.567Z,998.19
2022-08-05T11:27:05.826Z,998.18
2022-08-05T11:28:05.807Z,998.25
2022-08-05T11:29:13.345Z,998.23
2022-08-05T11:30:06.797Z,998.25
2022-08-05T11:31:06.551Z,998.21
2022-08-05T11:32:05.784Z,998.21
2022-08-05T11:33:05.757Z,998.17
2022-08-05T11:34:08.202Z,998.21
2022-08-05T11:35:05.748Z,998.19
2022-08-05T11:36:08.170Z,998.16
2022-08-05T11:37:55.145Z,998.15
2022-08-05T11:38:28.356Z,998.15
2022-08-05T11:39:06.739Z,998.10
2022-08-05T11:40:05.724Z,998.10
2022-08-05T11:41:34.611Z,998.11
2022-08-05T11:42:06.646Z,998.02
2022-08-05T11:43:05.619Z,998.02
2022-08-05T11:44:08.328Z,998.04
2022-08-05T11:45:05.670Z,997.98
2022-08-05T11:46:27.365Z,998.07
2022-08-05T11:47:12.054Z,997.99
2022-08-05T11:48:06.589Z,998.00
2022-08-05T11:49:08.060Z,997.92
2022-08-05T11:50:05.543Z,997.95
2022-08-05T11:51:05.520Z,997.91
2022-08-05T11:52:11.475Z,997.87
2022-08-05T11:53:09.973Z,997.87
2022-08-05T11:54:05.533Z,997.90
2022-08-05T11:55:07.453Z,997.91
2022-08-05T11:56:05.525Z,997.89
2022-08-05T11:57:08.131Z,997.91
2022-08-05T11:58:08.146Z,997.95
2022-08-05T11:59:13.600Z,997.89
2022-08-05T12:00:06.452Z,997.91
2022-08-05T12:01:08.500Z,997.89
2022-08-05T12:02:06.391Z,997.91
2022-08-05T12:03:06.401Z,997.88
2022-08-05T12:04:05.372Z,997.83
2022-08-05T12:05:08.112Z,997.79
2022-08-05T12:06:10.003Z,997.82
2022-08-05T12:07:05.326Z,997.82
2022-08-05T12:08:10.799Z,997.81
2022-08-05T12:09:06.322Z,997.82
2022-08-05T12:10:09.425Z,997.82
2022-08-05T12:11:06.449Z,997.86
2022-08-05T12:12:05.263Z,997.84
2022-08-05T12:13:15.811Z,997.83
2022-08-05T12:14:06.311Z,997.82
2022-08-05T12:15:05.246Z,997.81
2022-08-05T12:16:14.252Z,997.81
2022-08-05T12:18:00.530Z,997.72
2022-08-05T12:18:10.585Z,997.79
2022-08-05T12:19:08.139Z,997.69
2022-08-05T12:20:16.815Z,997.68
2022-08-05T12:21:06.162Z,997.62
2022-08-05T12:22:05.136Z,997.66
2022-08-05T12:23:05.148Z,997.65
2022-08-05T12:24:07.034Z,997.70
2022-08-05T12:25:05.097Z,997.66
2022-08-05T12:26:05.113Z,997.66
2022-08-05T12:27:09.898Z,997.63
2022-08-05T12:28:06.077Z,997.62
2022-08-05T12:29:05.073Z,997.72